createdAt,value
2018-07-03T00:01:20.875Z,17.73
2018-07-03T00:03:51.535Z,17.66
2018-07-03T00:06:22.249Z,17.62
2018-07-03T00:08:52.903Z,17.59
2018-07-03T00:11:23.601Z,17.54
2018-07-03T00:13:54.105Z,17.51
2018-07-03T00:16:29.759Z,17.47
2018-07-03T00:19:00.452Z,17.39
2018-07-03T00:21:31.148Z,17.32
2018-07-03T00:24:01.824Z,17.30
2018-07-03T00:26:32.456Z,17.31
2018-07-03T00:29:03.098Z,17.30
2018-07-03T00:31:33.775Z,17.33
2018-07-03T00:34:04.459Z,17.25
2018-07-03T00:36:35.151Z,17.24
2018-07-03T00:39:08.873Z,17.23
2018-07-03T00:41:39.528Z,17.20
2018-07-03T00:44:10.189Z,17.24
2018-07-03T00:46:40.487Z,17.24
2018-07-03T00:49:11.007Z,17.20
2018-07-03T00:51:41.672Z,17.20
2018-07-03T00:54:12.452Z,17.15
2018-07-03T00:56:43.143Z,17.18
2018-07-03T00:59:13.780Z,17.11
2018-07-03T01:01:44.480Z,17.10
2018-07-03T01:04:15.167Z,17.06
2018-07-03T01:06:45.868Z,17.05
2018-07-03T01:09:16.520Z,17.03
2018-07-03T01:11:47.270Z,17.00
2018-07-03T01:14:17.955Z,17.05
2018-07-03T01:16:48.604Z,16.98
2018-07-03T01:19:19.423Z,16.97
2018-07-03T01:21:50.096Z,16.87
2018-07-03T01:24:20.746Z,16.94
2018-07-03T01:26:51.486Z,16.86
2018-07-03T01:29:22.180Z,16.85
2018-07-03T01:31:52.824Z,16.77
2018-07-03T01:34:23.485Z,16.77
2018-07-03T01:36:54.151Z,16.72
2018-07-03T01:39:24.911Z,16.66
2018-07-03T01:41:55.558Z,16.63
2018-07-03T01:44:26.248Z,16.60
2018-07-03T01:46:56.876Z,16.55
2018-07-03T01:49:27.548Z,16.55
2018-07-03T01:51:58.178Z,16.48
2018-07-03T01:54:28.836Z,16.42
2018-07-03T01:56:59.599Z,16.40
2018-07-03T01:59:30.284Z,16.34
2018-07-03T02:02:00.908Z,16.28
2018-07-03T02:04:31.590Z,16.22
2018-07-03T02:07:02.242Z,16.14
2018-07-03T02:09:32.947Z,16.11
2018-07-03T02:12:03.647Z,16.11
2018-07-03T02:14:34.299Z,16.00
2018-07-03T02:17:05.248Z,15.98
2018-07-03T02:19:35.975Z,15.94
2018-07-03T02:22:06.720Z,15.88
2018-07-03T02:24:37.379Z,15.78
2018-07-03T02:27:08.086Z,15.77
2018-07-03T02:29:38.818Z,15.74
2018-07-03T02:32:09.464Z,15.71
2018-07-03T02:34:40.151Z,15.68
2018-07-03T02:37:10.767Z,15.59
2018-07-03T02:39:41.436Z,15.55
2018-07-03T02:42:12.141Z,15.46
2018-07-03T02:44:42.859Z,15.47
2018-07-03T02:47:13.533Z,15.39
2018-07-03T02:49:44.202Z,15.35
2018-07-03T02:52:14.892Z,15.32
2018-07-03T02:54:45.561Z,15.30
2018-07-03T02:57:16.243Z,15.29
2018-07-03T02:59:46.935Z,15.26
2018-07-03T03:02:17.621Z,15.17
2018-07-03T03:04:48.382Z,15.16
2018-07-03T03:07:19.084Z,15.14
2018-07-03T03:09:49.708Z,15.13
2018-07-03T03:12:20.408Z,15.09
2018-07-03T03:14:51.126Z,15.11
2018-07-03T03:17:21.794Z,15.07
2018-07-03T03:19:52.458Z,15.05
2018-07-03T03:22:23.224Z,15.03
2018-07-03T03:24:53.888Z,15.00
2018-07-03T03:27:24.550Z,15.03
2018-07-03T03:29:55.217Z,15.00
2018-07-03T03:32:25.859Z,14.98
2018-07-03T03:34:56.619Z,14.97
2018-07-03T03:37:27.310Z,14.99
2018-07-03T03:39:58.024Z,14.98
2018-07-03T03:42:28.693Z,14.96
2018-07-03T03:44:59.400Z,14.91
2018-07-03T03:47:30.061Z,14.94
2018-07-03T03:50:00.728Z,14.90
2018-07-03T03:52:31.393Z,14.89
2018-07-03T03:55:02.047Z,14.89
2018-07-03T03:57:32.739Z,14.89
2018-07-03T04:00:03.631Z,14.89
2018-07-03T04:02:34.293Z,14.88
2018-07-03T04:05:05.088Z,14.87
2018-07-03T04:07:35.839Z,14.85
2018-07-03T04:10:06.587Z,14.93
2018-07-03T04:12:36.950Z,14.95
2018-07-03T04:15:07.540Z,14.97
2018-07-03T04:17:38.192Z,15.01
2018-07-03T04:20:11.825Z,15.02
2018-07-03T04:22:42.448Z,15.07
2018-07-03T04:25:13.096Z,15.07
2018-07-03T04:27:43.747Z,15.13
2018-07-03T04:30:44.941Z,15.15
2018-07-03T04:33:15.614Z,15.18
2018-07-03T04:35:46.300Z,15.26
2018-07-03T04:38:16.928Z,15.30
2018-07-03T04:40:47.609Z,15.34
2018-07-03T04:43:18.507Z,15.40
2018-07-03T04:45:49.224Z,15.43
2018-07-03T04:48:19.905Z,15.45
2018-07-03T04:50:50.592Z,15.49
2018-07-03T04:53:21.361Z,15.50
2018-07-03T04:55:52.016Z,15.51
2018-07-03T04:58:22.726Z,15.57
2018-07-03T05:00:53.379Z,15.63
2018-07-03T05:03:24.076Z,15.68
2018-07-03T05:06:25.954Z,15.77
2018-07-03T05:08:56.647Z,15.89
2018-07-03T05:11:27.347Z,15.98
2018-07-03T05:13:58.013Z,16.02
2018-07-03T05:16:28.695Z,16.06
2018-07-03T05:18:59.380Z,16.12
2018-07-03T05:21:30.058Z,16.21
2018-07-03T05:24:00.679Z,16.26
2018-07-03T05:27:02.167Z,16.28
2018-07-03T05:29:39.576Z,16.37
2018-07-03T05:32:10.667Z,16.36
2018-07-03T05:34:41.355Z,16.40
2018-07-03T05:37:12.076Z,16.47
2018-07-03T05:39:42.751Z,16.45
2018-07-03T05:42:13.421Z,16.48
2018-07-03T05:44:44.109Z,16.56
2018-07-03T05:47:14.857Z,16.67
2018-07-03T05:49:45.611Z,16.78
2018-07-03T05:52:16.344Z,16.86
2018-07-03T05:54:47.003Z,16.99
2018-07-03T05:57:17.700Z,17.11
2018-07-03T05:59:48.470Z,17.26
2018-07-03T06:02:19.206Z,17.35
2018-07-03T06:04:49.848Z,17.49
2018-07-03T06:07:20.573Z,17.63
2018-07-03T06:09:51.263Z,17.72
2018-07-03T06:12:22.156Z,17.77
2018-07-03T06:14:53.812Z,17.83
2018-07-03T06:17:24.643Z,17.95
2018-07-03T06:19:55.227Z,18.06
2018-07-03T06:22:25.928Z,18.08
2018-07-03T06:24:56.600Z,18.17
2018-07-03T06:27:27.277Z,18.20
2018-07-03T06:29:58.040Z,18.33
2018-07-03T06:32:28.713Z,18.51
2018-07-03T06:34:59.370Z,18.71
2018-07-03T06:37:30.154Z,18.92
2018-07-03T06:40:00.862Z,19.07
2018-07-03T06:42:31.548Z,19.17
2018-07-03T06:45:02.323Z,19.22
2018-07-03T06:47:33.012Z,19.27
2018-07-03T06:50:03.752Z,19.44
2018-07-03T06:52:34.393Z,19.53
2018-07-03T06:55:05.149Z,19.59
2018-07-03T06:57:35.867Z,19.69
2018-07-03T07:00:07.667Z,19.79
2018-07-03T07:02:38.409Z,19.91
2018-07-03T07:05:09.073Z,20.08
2018-07-03T07:07:39.754Z,20.27
2018-07-03T07:10:10.491Z,20.41
2018-07-03T07:12:41.184Z,20.51
2018-07-03T07:15:11.908Z,20.70
2018-07-03T07:17:42.587Z,20.78
2018-07-03T07:20:13.296Z,20.92
2018-07-03T07:22:43.924Z,21.16
2018-07-03T07:25:14.605Z,21.28
2018-07-03T07:27:45.290Z,21.43
2018-07-03T07:30:15.998Z,21.53
2018-07-03T07:32:46.745Z,21.72
2018-07-03T07:35:17.463Z,21.88
2018-07-03T07:37:48.112Z,22.09
2018-07-03T07:40:18.816Z,22.22
2018-07-03T07:42:49.518Z,22.43
2018-07-03T07:45:20.219Z,22.63
2018-07-03T07:47:50.853Z,22.84
2018-07-03T07:50:21.528Z,23.05
2018-07-03T07:52:52.217Z,23.16
2018-07-03T07:55:22.877Z,23.32
2018-07-03T07:57:53.724Z,23.53
2018-07-03T08:00:24.388Z,23.82
2018-07-03T08:02:55.075Z,24.08
2018-07-03T08:05:25.754Z,24.27
2018-07-03T08:07:56.450Z,24.45
2018-07-03T08:10:27.133Z,24.70
2018-07-03T08:12:57.788Z,24.89
2018-07-03T08:15:28.508Z,24.93
2018-07-03T08:17:59.189Z,25.10
2018-07-03T08:20:29.858Z,25.38
2018-07-03T08:23:00.517Z,25.72
2018-07-03T08:25:31.218Z,26.05
2018-07-03T08:28:01.887Z,26.22
2018-07-03T08:30:32.497Z,26.40
2018-07-03T08:33:03.176Z,26.65
2018-07-03T08:35:33.873Z,26.85
2018-07-03T08:38:04.601Z,26.72
2018-07-03T08:40:35.288Z,26.52
2018-07-03T08:43:06.453Z,26.76
2018-07-03T08:45:37.209Z,27.07
2018-07-03T08:48:08.058Z,27.36
2018-07-03T08:50:38.713Z,27.65
2018-07-03T08:53:09.404Z,27.82
2018-07-03T08:55:40.855Z,27.98
2018-07-03T08:58:11.641Z,28.08
2018-07-03T09:00:42.283Z,28.09
2018-07-03T09:03:12.984Z,28.18
2018-07-03T09:05:43.653Z,27.86
2018-07-03T09:08:14.353Z,27.81
2018-07-03T09:10:45.097Z,27.68
2018-07-03T09:13:15.767Z,27.67
2018-07-03T09:15:46.450Z,27.82
2018-07-03T09:18:17.136Z,27.80
2018-07-03T09:20:47.830Z,27.64
2018-07-03T09:23:18.540Z,27.81
2018-07-03T09:25:49.303Z,28.14
2018-07-03T09:28:19.968Z,28.36
2018-07-03T09:30:50.631Z,28.39
2018-07-03T09:33:21.328Z,28.32
2018-07-03T09:35:52.036Z,28.17
2018-07-03T09:38:22.774Z,28.29
2018-07-03T09:41:08.034Z,28.11
2018-07-03T09:43:38.731Z,28.36
2018-07-03T09:46:09.441Z,28.55
2018-07-03T09:48:40.127Z,28.83
2018-07-03T09:51:10.863Z,29.17
2018-07-03T09:53:41.858Z,29.55
2018-07-03T09:56:18.825Z,29.51
2018-07-03T09:58:49.493Z,29.35
2018-07-03T10:01:21.102Z,29.77
2018-07-03T10:03:51.787Z,29.97
2018-07-03T10:06:22.508Z,30.11
2018-07-03T10:08:53.157Z,30.62
2018-07-03T10:11:23.834Z,31.04
2018-07-03T10:13:54.915Z,31.63
2018-07-03T10:16:25.604Z,31.90
2018-07-03T10:18:56.317Z,31.55
2018-07-03T10:21:27.003Z,31.31
2018-07-03T10:23:57.668Z,31.17
2018-07-03T10:26:28.428Z,30.96
2018-07-03T10:28:59.524Z,30.72
2018-07-03T10:31:30.562Z,30.60
2018-07-03T10:34:01.267Z,30.60
2018-07-03T10:36:31.944Z,30.78
2018-07-03T10:39:02.739Z,31.28
2018-07-03T10:41:33.419Z,31.81
2018-07-03T10:44:04.300Z,32.32
2018-07-03T10:46:34.977Z,32.65
2018-07-03T10:49:05.720Z,32.89
2018-07-03T10:51:36.435Z,33.11
2018-07-03T10:54:07.202Z,33.24
2018-07-03T10:56:37.866Z,33.21
2018-07-03T10:59:08.607Z,33.49
2018-07-03T11:01:39.304Z,33.75
2018-07-03T11:04:10.044Z,33.19
2018-07-03T11:06:40.751Z,32.91
2018-07-03T11:09:12.612Z,32.69
2018-07-03T11:11:43.339Z,32.54
2018-07-03T11:14:14.040Z,32.44
2018-07-03T11:16:44.856Z,32.55
2018-07-03T11:19:15.516Z,32.20
2018-07-03T11:21:46.253Z,32.40
2018-07-03T11:24:16.989Z,32.92
2018-07-03T11:26:47.728Z,33.31
2018-07-03T11:29:18.470Z,33.23
2018-07-03T11:31:49.239Z,32.54
2018-07-03T11:34:19.954Z,32.19
2018-07-03T11:36:50.640Z,31.67
2018-07-03T11:39:21.339Z,31.33
2018-07-03T11:41:52.044Z,31.74
2018-07-03T11:44:22.761Z,32.35
2018-07-03T11:46:53.464Z,32.62
2018-07-03T11:49:24.205Z,31.90
2018-07-03T11:51:54.915Z,32.19
2018-07-03T11:54:25.640Z,32.20
2018-07-03T11:56:56.358Z,32.34
2018-07-03T11:59:27.055Z,32.85
2018-07-03T12:02:28.823Z,33.28
2018-07-03T12:04:59.509Z,33.71
2018-07-03T12:07:30.244Z,33.76
2018-07-03T12:10:00.942Z,34.12
2018-07-03T12:12:31.625Z,34.51
2018-07-03T12:15:02.361Z,34.64
2018-07-03T12:17:33.045Z,34.98
2018-07-03T12:20:03.851Z,35.32
2018-07-03T12:22:34.532Z,35.55
2018-07-03T12:25:05.685Z,35.79
2018-07-03T12:27:36.400Z,35.99
2018-07-03T12:30:11.728Z,36.20
2018-07-03T12:32:42.403Z,36.30
2018-07-03T12:35:13.069Z,36.43
2018-07-03T12:37:43.735Z,36.65
2018-07-03T12:40:14.467Z,36.71
2018-07-03T12:42:45.179Z,36.76
2018-07-03T12:45:15.860Z,36.86
2018-07-03T12:47:46.584Z,36.22
2018-07-03T12:50:17.320Z,36.14
2018-07-03T12:52:48.024Z,36.03
2018-07-03T12:55:18.773Z,36.04
2018-07-03T12:57:49.488Z,36.25
2018-07-03T13:00:20.277Z,36.66
2018-07-03T13:02:51.003Z,36.67
2018-07-03T13:05:21.739Z,36.86
2018-07-03T13:07:52.509Z,36.97
2018-07-03T13:10:23.263Z,36.87
2018-07-03T13:12:54.254Z,36.37
2018-07-03T13:15:25.595Z,35.83
2018-07-03T13:17:56.240Z,35.46
2018-07-03T13:20:26.869Z,35.66
2018-07-03T13:22:57.630Z,35.81
2018-07-03T13:25:28.303Z,35.97
2018-07-03T13:27:58.939Z,35.96
2018-07-03T13:30:29.612Z,36.13
2018-07-03T13:33:00.352Z,36.51
2018-07-03T13:35:31.045Z,36.70
2018-07-03T13:38:01.732Z,36.73
2018-07-03T13:40:32.464Z,36.76
2018-07-03T13:43:03.145Z,36.48
2018-07-03T13:45:33.834Z,36.59
2018-07-03T13:48:04.777Z,36.60
2018-07-03T13:50:35.483Z,36.80
2018-07-03T13:53:06.236Z,37.01
2018-07-03T13:55:36.927Z,37.04
2018-07-03T13:58:08.216Z,37.00
2018-07-03T14:00:38.931Z,37.10
2018-07-03T14:03:09.588Z,37.13
2018-07-03T14:05:40.337Z,37.05
2018-07-03T14:08:11.166Z,37.22
2018-07-03T14:10:41.839Z,37.11
2018-07-03T14:13:12.460Z,37.26
2018-07-03T14:15:43.200Z,37.54
2018-07-03T14:18:13.871Z,37.12
2018-07-03T14:20:44.528Z,37.04
2018-07-03T14:23:15.139Z,36.98
2018-07-03T14:25:45.814Z,36.68
2018-07-03T14:28:16.585Z,36.65
2018-07-03T14:30:47.270Z,36.64
2018-07-03T14:33:17.992Z,36.72
2018-07-03T14:35:48.733Z,36.90
2018-07-03T14:38:19.362Z,37.03
2018-07-03T14:40:50.047Z,36.91
2018-07-03T14:43:20.845Z,36.93
2018-07-03T14:45:51.605Z,36.98
2018-07-03T14:48:22.278Z,36.83
2018-07-03T14:50:52.973Z,36.71
2018-07-03T14:53:23.647Z,36.83
2018-07-03T14:55:54.347Z,36.63
2018-07-03T14:58:25.024Z,36.71
2018-07-03T15:00:55.712Z,36.59
2018-07-03T15:03:26.328Z,36.60
2018-07-03T15:05:56.985Z,36.78
2018-07-03T15:08:27.653Z,36.80
2018-07-03T15:10:58.364Z,36.75
2018-07-03T15:13:28.712Z,36.72
2018-07-03T15:15:59.272Z,36.29
2018-07-03T15:18:35.169Z,36.27
2018-07-03T15:21:05.865Z,36.22
2018-07-03T15:23:36.494Z,36.31
2018-07-03T15:26:07.302Z,36.21
2018-07-03T15:28:37.945Z,35.89
2018-07-03T15:31:08.614Z,35.97
2018-07-03T15:33:39.282Z,35.99
2018-07-03T15:36:09.995Z,35.84
2018-07-03T15:38:40.699Z,35.93
2018-07-03T15:41:11.348Z,35.87
2018-07-03T15:43:53.635Z,35.84
2018-07-03T15:46:24.321Z,35.65
2018-07-03T15:48:54.901Z,35.28
2018-07-03T15:51:25.421Z,35.08
2018-07-03T15:53:56.125Z,34.93
2018-07-03T15:56:26.854Z,34.83
2018-07-03T15:58:57.558Z,34.74
2018-07-03T16:01:28.330Z,34.60
2018-07-03T16:04:16.538Z,34.43
2018-07-03T16:07:08.560Z,34.44
2018-07-03T16:09:39.261Z,34.46
2018-07-03T16:12:09.929Z,34.32
2018-07-03T16:14:40.595Z,34.26
2018-07-03T16:17:11.294Z,34.12
2018-07-03T16:19:47.315Z,34.02
2018-07-03T16:22:17.985Z,33.99
2018-07-03T16:24:48.751Z,33.89
2018-07-03T16:27:19.364Z,33.83
2018-07-03T16:29:50.034Z,33.75
2018-07-03T16:32:20.692Z,33.55
2018-07-03T16:34:51.380Z,33.39
2018-07-03T16:37:22.060Z,33.32
2018-07-03T16:39:52.953Z,33.22
2018-07-03T16:42:23.587Z,33.10
2018-07-03T16:44:54.321Z,32.95
2018-07-03T16:47:24.969Z,32.88
2018-07-03T16:49:55.698Z,32.81
2018-07-03T16:52:26.389Z,32.67
2018-07-03T16:54:57.044Z,32.44
2018-07-03T16:57:27.775Z,32.28
2018-07-03T16:59:58.454Z,32.25
2018-07-03T17:02:29.097Z,32.11
2018-07-03T17:04:59.739Z,32.06
2018-07-03T17:07:30.496Z,31.92
2018-07-03T17:10:01.221Z,31.90
2018-07-03T17:12:31.894Z,31.77
2018-07-03T17:15:02.584Z,31.72
2018-07-03T17:17:33.256Z,31.73
2018-07-03T17:20:03.988Z,31.72
2018-07-03T17:22:34.671Z,31.54
2018-07-03T17:25:05.903Z,31.44
2018-07-03T17:27:36.533Z,31.38
2018-07-03T17:30:07.341Z,31.22
2018-07-03T17:32:38.060Z,31.17
2018-07-03T17:35:08.751Z,31.15
2018-07-03T17:37:39.420Z,31.03
2018-07-03T17:40:27.055Z,30.95
2018-07-03T17:44:20.450Z,30.83
2018-07-03T17:46:51.140Z,30.71
2018-07-03T17:49:21.832Z,30.64
2018-07-03T17:51:52.542Z,30.55
2018-07-03T17:54:23.207Z,30.50
2018-07-03T17:56:53.865Z,30.44
2018-07-03T17:59:24.610Z,30.37
2018-07-03T18:01:55.319Z,30.27
2018-07-03T18:04:25.957Z,30.11
2018-07-03T18:06:56.622Z,29.92
2018-07-03T18:09:27.328Z,29.76
2018-07-03T18:11:57.996Z,29.69
2018-07-03T18:14:28.682Z,29.55
2018-07-03T18:16:59.325Z,29.48
2018-07-03T18:19:35.189Z,29.40
2018-07-03T18:22:05.910Z,29.28
2018-07-03T18:24:36.617Z,29.18
2018-07-03T18:27:07.310Z,29.06
2018-07-03T18:29:37.994Z,29.02
2018-07-03T18:32:08.676Z,28.96
2018-07-03T18:34:39.500Z,28.89
2018-07-03T18:37:10.167Z,28.75
2018-07-03T18:39:40.846Z,28.65
2018-07-03T18:42:11.507Z,28.55
2018-07-03T18:44:42.174Z,28.48
2018-07-03T18:47:12.872Z,28.38
2018-07-03T18:49:43.548Z,28.33
2018-07-03T18:52:13.936Z,28.22
2018-07-03T18:54:44.441Z,28.12
2018-07-03T18:57:15.144Z,28.06
2018-07-03T18:59:45.945Z,27.98
2018-07-03T19:02:16.663Z,27.89
2018-07-03T19:04:47.335Z,27.79
2018-07-03T19:07:17.987Z,27.69
2018-07-03T19:09:48.663Z,27.63
2018-07-03T19:12:19.369Z,27.53
2018-07-03T19:14:50.087Z,27.41
2018-07-03T19:17:20.812Z,27.33
2018-07-03T19:19:51.480Z,27.21
2018-07-03T19:22:22.201Z,27.08
2018-07-03T19:24:52.912Z,26.98
2018-07-03T19:27:23.610Z,26.88
2018-07-03T19:29:54.339Z,26.79
2018-07-03T19:32:25.011Z,26.70
2018-07-03T19:34:55.676Z,26.59
2018-07-03T19:37:26.415Z,26.49
2018-07-03T19:39:57.076Z,26.38
2018-07-03T19:42:27.827Z,26.27
2018-07-03T19:44:58.464Z,26.16
2018-07-03T19:47:29.108Z,26.08
2018-07-03T19:49:59.760Z,25.99
2018-07-03T19:52:30.477Z,25.90
2018-07-03T19:55:01.151Z,25.78
2018-07-03T19:57:31.818Z,25.70
2018-07-03T20:00:02.502Z,25.61
2018-07-03T20:02:33.185Z,25.52
2018-07-03T20:05:03.866Z,25.43
2018-07-03T20:07:34.560Z,25.31
2018-07-03T20:10:05.339Z,25.25
2018-07-03T20:12:36.036Z,25.17
2018-07-03T20:15:06.775Z,25.12
2018-07-03T20:17:37.463Z,25.06
2018-07-03T20:20:08.355Z,25.01
2018-07-03T20:22:39.017Z,24.94
2018-07-03T20:25:09.744Z,24.85
2018-07-03T20:27:40.455Z,24.79
2018-07-03T20:30:11.123Z,24.73
2018-07-03T20:32:41.783Z,24.67
2018-07-03T20:35:12.437Z,24.63
2018-07-03T20:38:07.203Z,24.60
2018-07-03T20:41:10.328Z,24.52
2018-07-03T20:43:42.169Z,24.43
2018-07-03T20:46:12.880Z,24.33
2018-07-03T20:48:43.551Z,24.30
2018-07-03T20:51:14.252Z,24.23
2018-07-03T20:53:44.932Z,24.18
2018-07-03T20:56:15.611Z,24.13
2018-07-03T20:58:46.255Z,24.07
2018-07-03T21:01:16.956Z,24.02
2018-07-03T21:03:47.833Z,23.98
2018-07-03T21:06:18.579Z,23.96
2018-07-03T21:08:49.152Z,23.92
2018-07-03T21:11:19.839Z,23.83
2018-07-03T21:13:50.553Z,23.78
2018-07-03T21:16:21.230Z,23.72
2018-07-03T21:18:51.864Z,23.65
2018-07-03T21:21:37.301Z,23.58
2018-07-03T21:24:08.119Z,23.51
2018-07-03T21:26:38.748Z,23.48
2018-07-03T21:29:09.446Z,23.42
2018-07-03T21:31:40.171Z,23.30
2018-07-03T21:34:10.752Z,23.25
2018-07-03T21:36:41.488Z,23.20
2018-07-03T21:39:12.288Z,23.07
2018-07-03T21:41:42.931Z,23.01
2018-07-03T21:44:13.719Z,22.94
2018-07-03T21:46:44.347Z,22.82
2018-07-03T21:49:15.088Z,22.75
2018-07-03T21:51:45.781Z,22.70
2018-07-03T21:54:16.925Z,22.67
2018-07-03T21:56:47.557Z,22.56
2018-07-03T21:59:18.229Z,22.53
2018-07-03T22:01:48.903Z,22.49
2018-07-03T22:04:25.681Z,22.46
2018-07-03T22:06:56.879Z,22.40
2018-07-03T22:09:27.567Z,22.29
2018-07-03T22:11:58.318Z,22.28
2018-07-03T22:14:28.872Z,22.23
2018-07-03T22:16:59.571Z,22.19
2018-07-03T22:19:30.188Z,22.11
2018-07-03T22:22:00.893Z,22.05
2018-07-03T22:24:31.764Z,22.03
2018-07-03T22:27:02.449Z,21.95
2018-07-03T22:29:33.146Z,21.91
2018-07-03T22:32:03.856Z,21.91
2018-07-03T22:34:34.531Z,21.87
2018-07-03T22:37:05.270Z,21.81
2018-07-03T22:39:36.024Z,21.70
2018-07-03T22:42:06.652Z,21.62
2018-07-03T22:44:37.339Z,21.57
2018-07-03T22:47:07.996Z,21.52
2018-07-03T22:49:38.687Z,21.50
2018-07-03T22:52:09.339Z,21.41
2018-07-03T22:54:40.010Z,21.34
2018-07-03T22:57:10.702Z,21.28
2018-07-03T22:59:41.399Z,21.21
2018-07-03T23:02:12.100Z,21.15
2018-07-03T23:04:42.743Z,21.15
2018-07-03T23:07:13.412Z,21.18
2018-07-03T23:09:44.061Z,21.14
2018-07-03T23:12:20.570Z,21.08
2018-07-03T23:14:52.102Z,21.00
2018-07-03T23:17:22.770Z,20.98
2018-07-03T23:19:53.407Z,20.99
2018-07-03T23:22:24.083Z,20.90
2018-07-03T23:24:54.730Z,20.83
2018-07-03T23:27:25.432Z,20.78
2018-07-03T23:29:56.119Z,20.75
2018-07-03T23:32:26.760Z,20.77
2018-07-03T23:34:57.432Z,20.73
2018-07-03T23:37:28.099Z,20.70
2018-07-03T23:39:58.814Z,20.65
2018-07-03T23:42:29.500Z,20.62
2018-07-03T23:45:00.125Z,20.63
2018-07-03T23:47:47.784Z,20.61
2018-07-03T23:50:35.041Z,20.55
2018-07-03T23:53:22.563Z,20.52
2018-07-03T23:56:10.148Z,20.45
2018-07-03T23:58:57.546Z,20.43
